createdAt,value
2018-04-12T00:00:21.225Z,0.00
2018-04-12T00:01:21.263Z,0.00
2018-04-12T00:02:21.174Z,0.00
2018-04-12T00:03:21.175Z,0.00
2018-04-12T00:04:21.122Z,0.00
2018-04-12T00:05:21.190Z,0.00
2018-04-12T00:06:21.080Z,0.00
2018-04-12T00:07:21.096Z,0.00
2018-04-12T00:08:21.013Z,0.00
2018-04-12T00:09:21.110Z,0.00
2018-04-12T00:10:20.979Z,0.00
2018-04-12T00:11:21.021Z,0.00
2018-04-12T00:12:20.924Z,0.00
2018-04-12T00:13:20.932Z,0.00
2018-04-12T00:14:20.876Z,0.00
2018-04-12T00:15:20.940Z,0.00
2018-04-12T00:16:20.828Z,0.00
2018-04-12T00:17:20.852Z,0.00
2018-04-12T00:18:20.769Z,0.00
2018-04-12T00:19:20.862Z,0.00
2018-04-12T00:20:20.728Z,0.00
2018-04-12T00:21:20.776Z,0.00
2018-04-12T00:22:20.677Z,0.00
2018-04-12T00:23:20.683Z,0.00
2018-04-12T00:24:20.623Z,0.00
2018-04-12T00:25:20.699Z,0.00
2018-04-12T00:26:20.572Z,0.00
2018-04-12T00:27:20.610Z,0.00
2018-04-12T00:28:20.521Z,0.00
2018-04-12T00:29:20.521Z,0.00
2018-04-12T00:30:20.475Z,0.00
2018-04-12T00:31:20.535Z,0.00
2018-04-12T00:32:20.424Z,0.00
2018-04-12T00:33:20.445Z,0.00
2018-04-12T00:34:20.375Z,0.00
2018-04-12T00:35:20.456Z,0.00
2018-04-12T00:36:20.323Z,0.00
2018-04-12T00:37:20.365Z,0.00
2018-04-12T00:38:20.273Z,0.00
2018-04-12T00:39:20.275Z,0.00
2018-04-12T00:40:20.225Z,0.00
2018-04-12T00:41:20.284Z,0.00
2018-04-12T00:42:20.175Z,0.00
2018-04-12T00:43:20.197Z,0.00
2018-04-12T00:44:20.122Z,0.00
2018-04-12T00:45:20.209Z,0.00
2018-04-12T00:46:20.074Z,0.00
2018-04-12T00:47:20.117Z,0.00
2018-04-12T00:48:20.023Z,0.00
2018-04-12T00:49:20.027Z,0.00
2018-04-12T00:50:19.972Z,0.00
2018-04-12T00:51:20.040Z,0.00
2018-04-12T00:52:19.923Z,0.00
2018-04-12T00:53:19.950Z,0.00
2018-04-12T00:54:19.871Z,0.00
2018-04-12T00:55:19.875Z,0.00
2018-04-12T00:56:19.820Z,0.00
2018-04-12T00:57:19.880Z,0.00
2018-04-12T00:58:19.772Z,0.00
2018-04-12T00:59:19.782Z,0.00
2018-04-12T01:00:19.720Z,0.00
2018-04-12T01:01:19.796Z,0.00
2018-04-12T01:02:19.671Z,0.00
2018-04-12T01:03:19.709Z,0.00
2018-04-12T01:04:19.632Z,0.00
2018-04-12T01:05:19.617Z,0.00
2018-04-12T01:06:19.574Z,0.00
2018-04-12T01:07:19.627Z,0.00
2018-04-12T01:08:19.521Z,0.00
2018-04-12T01:09:19.542Z,0.00
2018-04-12T01:10:19.472Z,0.00
2018-04-12T01:11:19.551Z,0.00
2018-04-12T01:12:19.422Z,0.00
2018-04-12T01:13:19.464Z,0.00
2018-04-12T01:14:19.371Z,0.00
2018-04-12T01:15:19.373Z,0.00
2018-04-12T01:16:19.320Z,0.00
2018-04-12T01:17:19.386Z,0.00
2018-04-12T01:18:19.272Z,0.00
2018-04-12T01:19:19.297Z,0.00
2018-04-12T01:20:19.220Z,0.00
2018-04-12T01:21:19.312Z,0.00
2018-04-12T01:22:19.170Z,0.00
2018-04-12T01:23:19.218Z,0.00
2018-04-12T01:24:19.125Z,0.00
2018-04-12T01:25:19.127Z,0.00
2018-04-12T01:26:19.069Z,0.00
2018-04-12T01:27:19.139Z,0.00
2018-04-12T01:28:19.018Z,0.00
2018-04-12T01:29:19.049Z,0.00
2018-04-12T01:30:18.966Z,0.00
2018-04-12T01:31:18.960Z,0.00
2018-04-12T01:32:18.916Z,0.00
2018-04-12T01:33:18.973Z,0.00
2018-04-12T01:34:18.870Z,0.00
2018-04-12T01:35:18.885Z,0.00
2018-04-12T01:36:18.816Z,0.00
2018-04-12T01:37:18.894Z,0.00
2018-04-12T01:38:18.772Z,0.00
2018-04-12T01:39:18.806Z,0.00
2018-04-12T01:40:18.718Z,0.00
2018-04-12T01:41:18.716Z,0.00
2018-04-12T01:42:18.663Z,0.00
2018-04-12T01:43:18.730Z,0.00
2018-04-12T01:44:18.614Z,0.00
2018-04-12T01:45:18.642Z,0.00
2018-04-12T01:46:18.565Z,0.00
2018-04-12T01:47:18.653Z,0.00
2018-04-12T01:48:18.518Z,0.00
2018-04-12T01:49:18.565Z,0.00
2018-04-12T01:50:18.472Z,0.00
2018-04-12T01:51:18.483Z,0.00
2018-04-12T01:52:18.412Z,0.00
2018-04-12T01:53:18.528Z,0.00
2018-04-12T01:54:18.360Z,0.00
2018-04-12T01:55:18.404Z,0.00
2018-04-12T01:56:18.313Z,0.00
2018-04-12T01:57:19.343Z,0.00
2018-04-12T01:58:18.260Z,0.00
2018-04-12T01:59:18.320Z,0.00
2018-04-12T02:00:18.215Z,0.00
2018-04-12T02:01:18.227Z,0.00
2018-04-12T02:02:18.161Z,0.00
2018-04-12T02:03:18.241Z,0.00
2018-04-12T02:04:18.110Z,0.00
2018-04-12T02:05:18.147Z,0.00
2018-04-12T02:06:18.062Z,0.00
2018-04-12T02:07:18.058Z,0.00
2018-04-12T02:08:18.020Z,0.00
2018-04-12T02:09:18.070Z,0.00
2018-04-12T02:10:17.964Z,0.00
2018-04-12T02:11:17.981Z,0.00
2018-04-12T02:12:17.915Z,0.00
2018-04-12T02:13:17.993Z,0.00
2018-04-12T02:14:17.860Z,0.00
2018-04-12T02:15:17.905Z,0.00
2018-04-12T02:16:17.810Z,0.00
2018-04-12T02:17:17.813Z,0.00
2018-04-12T02:18:17.763Z,0.00
2018-04-12T02:19:17.826Z,0.00
2018-04-12T02:20:17.711Z,0.00
2018-04-12T02:21:17.744Z,0.00
2018-04-12T02:22:17.660Z,0.00
2018-04-12T02:23:17.751Z,0.00
2018-04-12T02:24:17.618Z,0.00
2018-04-12T02:25:17.665Z,0.00
2018-04-12T02:26:17.563Z,0.00
2018-04-12T02:27:17.569Z,0.00
2018-04-12T02:28:17.510Z,0.00
2018-04-12T02:29:17.589Z,0.00
2018-04-12T02:30:17.459Z,0.00
2018-04-12T02:31:17.495Z,0.00
2018-04-12T02:32:17.416Z,0.00
2018-04-12T02:33:17.402Z,0.00
2018-04-12T02:34:17.358Z,0.00
2018-04-12T02:35:17.415Z,0.00
2018-04-12T02:36:17.310Z,0.00
2018-04-12T02:37:17.325Z,0.00
2018-04-12T02:38:17.258Z,0.00
2018-04-12T02:39:17.341Z,0.00
2018-04-12T02:40:17.213Z,0.00
2018-04-12T02:41:17.249Z,0.00
2018-04-12T02:42:17.161Z,0.00
2018-04-12T02:43:17.160Z,0.00
2018-04-12T02:44:17.110Z,0.00
2018-04-12T02:45:17.172Z,0.00
2018-04-12T02:46:17.057Z,0.00
2018-04-12T02:48:51.703Z,0.00
2018-04-12T02:49:48.734Z,0.00
2018-04-12T02:51:41.603Z,0.00
2018-04-12T02:52:41.517Z,0.00
2018-04-12T02:54:34.457Z,0.00
2018-04-12T02:55:34.370Z,0.00
2018-04-12T02:57:27.817Z,0.00
2018-04-12T02:58:27.727Z,0.00
2018-04-12T03:00:20.671Z,0.00
2018-04-12T03:01:20.578Z,0.00
2018-04-12T03:03:13.521Z,0.00
2018-04-12T03:04:13.440Z,0.00
2018-04-12T03:06:06.371Z,0.00
2018-04-12T03:07:06.322Z,0.00
2018-04-12T03:08:59.223Z,0.00
2018-04-12T03:09:59.147Z,0.00
2018-04-12T03:11:52.074Z,0.00
2018-04-12T03:12:51.979Z,0.00
2018-04-12T03:14:44.923Z,0.00
2018-04-12T03:15:44.828Z,0.00
2018-04-12T03:17:37.773Z,0.00
2018-04-12T03:18:37.682Z,0.00
2018-04-12T03:20:30.624Z,0.00
2018-04-12T03:21:30.531Z,0.00
2018-04-12T03:23:23.512Z,0.00
2018-04-12T03:24:23.399Z,0.00
2018-04-12T03:26:16.325Z,0.00
2018-04-12T03:27:16.236Z,0.00
2018-04-12T03:29:09.179Z,0.00
2018-04-12T03:30:09.086Z,0.00
2018-04-12T03:32:02.028Z,0.00
2018-04-12T03:33:01.935Z,0.00
2018-04-12T03:34:54.877Z,0.00
2018-04-12T03:35:54.784Z,0.00
2018-04-12T03:37:47.731Z,0.00
2018-04-12T03:38:47.638Z,0.00
2018-04-12T03:40:40.581Z,0.00
2018-04-12T03:41:40.491Z,0.00
2018-04-12T03:43:33.428Z,0.00
2018-04-12T03:44:33.338Z,0.00
2018-04-12T03:46:26.280Z,0.00
2018-04-12T03:47:26.185Z,0.00
2018-04-12T03:49:19.185Z,0.00
2018-04-12T03:50:19.044Z,0.00
2018-04-12T03:52:11.981Z,0.00
2018-04-12T03:53:11.889Z,0.00
2018-04-12T03:55:04.836Z,0.00
2018-04-12T03:56:04.743Z,0.00
2018-04-12T03:57:57.684Z,0.00
2018-04-12T03:58:57.592Z,0.00
2018-04-12T04:00:50.538Z,0.00
2018-04-12T04:01:50.443Z,0.00
2018-04-12T04:03:43.386Z,0.00
2018-04-12T04:04:43.291Z,0.00
2018-04-12T04:06:36.238Z,0.00
2018-04-12T04:07:36.139Z,0.00
2018-04-12T04:09:29.096Z,0.00
2018-04-12T04:10:28.991Z,0.00
2018-04-12T04:12:21.936Z,0.00
2018-04-12T04:13:21.841Z,0.00
2018-04-12T04:15:14.788Z,0.00
2018-04-12T04:16:14.693Z,0.00
2018-04-12T04:18:07.640Z,0.00
2018-04-12T04:19:07.546Z,0.00
2018-04-12T04:21:00.493Z,0.00
2018-04-12T04:22:00.399Z,0.00
2018-04-12T04:23:53.279Z,4.00
2018-04-12T04:24:53.250Z,0.00
2018-04-12T04:26:46.197Z,4.00
2018-04-12T04:27:46.103Z,4.00
2018-04-12T04:29:40.065Z,4.00
2018-04-12T04:30:38.954Z,4.00
2018-04-12T04:32:31.894Z,8.00
2018-04-12T04:33:31.806Z,8.00
2018-04-12T04:35:24.741Z,8.00
2018-04-12T04:36:24.650Z,8.00
2018-04-12T04:38:17.593Z,12.00
2018-04-12T04:39:17.515Z,12.00
2018-04-12T04:41:10.446Z,16.00
2018-04-12T04:42:10.351Z,20.00
2018-04-12T04:44:03.297Z,24.00
2018-04-12T04:45:03.204Z,24.00
2018-04-12T04:46:56.149Z,32.00
2018-04-12T04:47:56.069Z,32.00
2018-04-12T04:49:48.940Z,40.00
2018-04-12T04:50:48.907Z,44.00
2018-04-12T04:52:42.060Z,48.00
2018-04-12T04:53:41.850Z,52.00
2018-04-12T04:55:35.016Z,60.00
2018-04-12T04:56:34.808Z,64.00
2018-04-12T04:58:27.964Z,72.00
2018-04-12T04:59:27.764Z,76.00
2018-04-12T05:01:20.823Z,92.00
2018-04-12T05:02:20.719Z,96.00
2018-04-12T05:04:13.773Z,108.00
2018-04-12T05:05:13.673Z,116.00
2018-04-12T05:07:06.728Z,132.00
2018-04-12T05:08:06.628Z,144.00
2018-04-12T05:09:59.683Z,160.00
2018-04-12T05:10:59.585Z,172.00
2018-04-12T05:12:52.660Z,184.00
2018-04-12T05:13:52.439Z,196.00
2018-04-12T05:15:45.394Z,212.00
2018-04-12T05:16:45.292Z,220.00
2018-04-12T05:18:39.270Z,236.00
2018-04-12T05:19:38.146Z,248.00
2018-04-12T05:21:31.098Z,264.00
2018-04-12T05:22:30.995Z,272.00
2018-04-12T05:23:31.083Z,280.00
2018-04-12T05:24:30.980Z,292.00
2018-04-12T05:25:30.994Z,300.00
2018-04-12T05:26:30.897Z,312.00
2018-04-12T05:27:31.008Z,324.00
2018-04-12T05:28:30.849Z,336.00
2018-04-12T05:29:30.920Z,344.00
2018-04-12T05:30:30.797Z,352.00
2018-04-12T05:31:30.840Z,364.00
2018-04-12T05:32:30.746Z,376.00
2018-04-12T05:33:30.853Z,380.00
2018-04-12T05:34:30.694Z,392.00
2018-04-12T05:35:30.757Z,396.00
2018-04-12T05:36:30.648Z,408.00
2018-04-12T05:37:30.671Z,416.00
2018-04-12T05:38:30.602Z,424.00
2018-04-12T05:39:30.686Z,432.00
2018-04-12T05:40:30.546Z,448.00
2018-04-12T05:41:30.596Z,460.00
2018-04-12T05:42:30.495Z,476.00
2018-04-12T05:43:30.608Z,480.00
2018-04-12T05:44:30.447Z,484.00
2018-04-12T05:45:30.526Z,484.00
2018-04-12T05:46:30.402Z,480.00
2018-04-12T05:47:30.432Z,472.00
2018-04-12T05:48:30.344Z,476.00
2018-04-12T05:49:30.445Z,484.00
2018-04-12T05:50:30.296Z,488.00
2018-04-12T05:51:30.364Z,488.00
2018-04-12T05:52:30.248Z,476.00
2018-04-12T05:53:30.372Z,468.00
2018-04-12T05:54:30.195Z,468.00
2018-04-12T05:55:30.286Z,484.00
2018-04-12T05:56:30.145Z,500.00
2018-04-12T05:57:30.195Z,508.00
2018-04-12T05:58:30.099Z,508.00
2018-04-12T05:59:30.207Z,516.00
2018-04-12T06:00:30.043Z,524.00
2018-04-12T06:01:30.123Z,528.00
2018-04-12T06:02:29.993Z,532.00
2018-04-12T06:03:30.134Z,540.00
2018-04-12T06:04:29.943Z,544.00
2018-04-12T06:05:30.044Z,540.00
2018-04-12T06:06:29.893Z,548.00
2018-04-12T06:07:29.963Z,556.00
2018-04-12T06:08:29.846Z,560.00
2018-04-12T06:09:29.971Z,560.00
2018-04-12T06:10:29.794Z,560.00
2018-04-12T06:11:29.883Z,560.00
2018-04-12T06:12:29.746Z,568.00
2018-04-12T06:13:29.794Z,572.00
2018-04-12T06:14:29.697Z,572.00
2018-04-12T06:15:29.812Z,576.00
2018-04-12T06:16:29.646Z,576.00
2018-04-12T06:17:29.720Z,572.00
2018-04-12T06:18:29.596Z,564.00
2018-04-12T06:19:29.734Z,568.00
2018-04-12T06:20:29.585Z,564.00
2018-04-12T06:21:29.646Z,564.00
2018-04-12T06:22:29.498Z,568.00
2018-04-12T06:23:29.660Z,576.00
2018-04-12T06:24:29.449Z,576.00
2018-04-12T06:25:29.572Z,576.00
2018-04-12T06:26:29.404Z,580.00
2018-04-12T06:27:29.484Z,580.00
2018-04-12T06:28:29.374Z,580.00
2018-04-12T06:29:29.498Z,580.00
2018-04-12T06:30:29.302Z,584.00
2018-04-12T06:31:29.407Z,588.00
2018-04-12T06:32:29.260Z,592.00
2018-04-12T06:33:29.327Z,596.00
2018-04-12T06:34:29.204Z,600.00
2018-04-12T06:35:29.335Z,596.00
2018-04-12T06:36:29.154Z,572.00
2018-04-12T06:37:29.133Z,548.00
2018-04-12T06:38:29.106Z,548.00
2018-04-12T06:39:29.264Z,576.00
2018-04-12T06:40:29.056Z,584.00
2018-04-12T06:41:29.172Z,604.00
2018-04-12T06:42:29.024Z,632.00
2018-04-12T06:43:28.983Z,624.00
2018-04-12T06:44:29.090Z,608.00
2018-04-12T06:45:28.933Z,596.00
2018-04-12T06:46:29.106Z,600.00
2018-04-12T06:47:28.922Z,612.00
2018-04-12T06:48:29.015Z,628.00
2018-04-12T06:49:28.840Z,652.00
2018-04-12T06:50:28.928Z,660.00
2018-04-12T06:51:28.784Z,648.00
2018-04-12T06:52:28.940Z,620.00
2018-04-12T06:53:28.737Z,624.00
2018-04-12T06:54:28.853Z,632.00
2018-04-12T06:55:28.688Z,632.00
2018-04-12T06:56:28.869Z,612.00
2018-04-12T06:57:28.643Z,580.00
2018-04-12T06:58:28.779Z,556.00
2018-04-12T06:59:28.603Z,548.00
2018-04-12T07:00:28.690Z,548.00
2018-04-12T07:01:28.541Z,564.00
2018-04-12T07:02:28.701Z,596.00
2018-04-12T07:03:28.496Z,604.00
2018-04-12T07:04:28.616Z,604.00
2018-04-12T07:05:28.445Z,652.00
2018-04-12T07:06:28.630Z,684.00
2018-04-12T07:07:28.411Z,680.00
2018-04-12T07:08:28.540Z,672.00
2018-04-12T07:09:28.348Z,664.00
2018-04-12T07:10:28.451Z,672.00
2018-04-12T07:11:28.298Z,716.00
2018-04-12T07:12:28.466Z,796.00
2018-04-12T07:13:28.254Z,860.00
2018-04-12T07:14:28.377Z,880.00
2018-04-12T07:15:28.199Z,960.00
2018-04-12T07:16:28.177Z,1068.00
2018-04-12T07:17:28.153Z,1180.00
2018-04-12T07:18:28.200Z,1236.00
2018-04-12T07:19:28.110Z,1232.00
2018-04-12T07:20:28.110Z,1256.00
2018-04-12T07:21:28.059Z,1284.00
2018-04-12T07:22:28.126Z,1296.00
2018-04-12T07:23:28.009Z,1304.00
2018-04-12T07:24:28.036Z,1276.00
2018-04-12T07:25:27.961Z,1204.00
2018-04-12T07:26:28.051Z,1144.00
2018-04-12T07:27:27.918Z,1072.00
2018-04-12T07:28:27.963Z,1008.00
2018-04-12T07:29:27.867Z,968.00
2018-04-12T07:30:27.874Z,904.00
2018-04-12T07:31:27.817Z,780.00
2018-04-12T07:32:27.894Z,680.00
2018-04-12T07:33:27.791Z,636.00
2018-04-12T07:34:27.800Z,624.00
2018-04-12T07:35:27.720Z,616.00
2018-04-12T07:36:27.812Z,604.00
2018-04-12T07:37:27.677Z,616.00
2018-04-12T07:38:27.723Z,600.00
2018-04-12T07:39:27.626Z,592.00
2018-04-12T07:40:27.743Z,636.00
2018-04-12T07:41:27.580Z,760.00
2018-04-12T07:42:27.652Z,776.00
2018-04-12T07:43:27.533Z,768.00
2018-04-12T07:44:27.559Z,756.00
2018-04-12T07:45:27.484Z,736.00
2018-04-12T07:46:27.575Z,712.00
2018-04-12T07:47:27.438Z,716.00
2018-04-12T07:48:27.486Z,748.00
2018-04-12T07:49:27.389Z,800.00
2018-04-12T07:50:27.501Z,808.00
2018-04-12T07:51:27.344Z,764.00
2018-04-12T07:52:27.414Z,704.00
2018-04-12T07:53:27.297Z,652.00
2018-04-12T07:54:27.325Z,636.00
2018-04-12T07:55:27.252Z,648.00
2018-04-12T07:56:27.338Z,640.00
2018-04-12T07:59:19.859Z,656.00
2018-04-12T07:59:58.901Z,680.00
2018-04-12T08:01:51.872Z,660.00
2018-04-12T08:02:51.777Z,680.00
2018-04-12T08:04:44.830Z,596.00
2018-04-12T08:05:44.735Z,600.00
2018-04-12T08:07:37.785Z,588.00
2018-04-12T08:08:37.684Z,608.00
2018-04-12T08:10:30.740Z,776.00
2018-04-12T08:11:30.640Z,760.00
2018-04-12T08:13:23.797Z,764.00
2018-04-12T08:14:23.599Z,800.00
2018-04-12T08:16:16.794Z,1172.00
2018-04-12T08:17:16.554Z,1168.00
2018-04-12T08:19:09.552Z,1112.00
2018-04-12T08:20:09.508Z,1192.00
2018-04-12T08:22:02.667Z,1260.00
2018-04-12T08:23:02.462Z,1260.00
2018-04-12T08:24:55.619Z,1244.00
2018-04-12T08:25:55.418Z,1232.00
2018-04-12T08:27:48.574Z,1260.00
2018-04-12T08:28:48.381Z,1256.00
2018-04-12T08:30:41.532Z,1272.00
2018-04-12T08:31:41.340Z,1256.00
2018-04-12T08:33:34.502Z,1232.00
2018-04-12T08:34:34.308Z,1204.00
2018-04-12T08:36:27.441Z,1148.00
2018-04-12T08:37:27.244Z,1120.00
2018-04-12T08:39:20.396Z,1052.00
2018-04-12T08:40:20.199Z,1016.00
2018-04-12T08:42:13.352Z,980.00
2018-04-12T08:43:13.159Z,964.00
2018-04-12T08:45:06.308Z,936.00
2018-04-12T08:46:06.107Z,920.00
2018-04-12T08:47:59.262Z,908.00
2018-04-12T08:48:59.062Z,908.00
2018-04-12T08:50:52.230Z,900.00
2018-04-12T08:51:52.019Z,916.00
2018-04-12T08:53:45.172Z,972.00
2018-04-12T08:54:44.976Z,1004.00
2018-04-12T08:56:38.127Z,1056.00
2018-04-12T08:57:37.939Z,1076.00
2018-04-12T08:59:31.083Z,1108.00
2018-04-12T09:00:30.884Z,1084.00
2018-04-12T09:02:24.039Z,1048.00
2018-04-12T09:03:23.842Z,1052.00
2018-04-12T09:05:16.996Z,1012.00
2018-04-12T09:06:16.798Z,996.00
2018-04-12T09:08:09.949Z,1016.00
2018-04-12T09:09:09.756Z,1036.00
2018-04-12T09:11:02.904Z,1088.00
2018-04-12T09:12:02.884Z,1108.00
2018-04-12T09:13:55.861Z,1140.00
2018-04-12T09:14:55.664Z,1164.00
2018-04-12T09:16:48.817Z,1220.00
2018-04-12T09:17:48.618Z,1268.00
2018-04-12T09:19:41.769Z,1380.00
2018-04-12T09:20:41.570Z,1428.00
2018-04-12T09:22:34.730Z,1508.00
2018-04-12T09:23:34.535Z,1556.00
2018-04-12T09:25:27.578Z,1644.00
2018-04-12T09:26:27.385Z,1680.00
2018-04-12T09:28:20.533Z,1808.00
2018-04-12T09:29:20.339Z,1852.00
2018-04-12T09:31:13.288Z,1884.00
2018-04-12T09:32:13.194Z,1944.00
2018-04-12T09:34:06.243Z,2060.00
2018-04-12T09:35:06.148Z,2076.00
2018-04-12T09:36:59.092Z,2208.00
2018-04-12T09:37:59.003Z,2264.00
2018-04-12T09:39:51.955Z,2440.00
2018-04-12T09:40:51.859Z,2516.00
2018-04-12T09:42:44.802Z,2468.00
2018-04-12T09:43:44.709Z,2088.00
2018-04-12T09:45:37.664Z,2276.00
2018-04-12T09:46:37.559Z,2492.00
2018-04-12T09:48:30.507Z,2360.00
2018-04-12T09:49:30.436Z,2080.00
2018-04-12T09:51:23.358Z,1992.00
2018-04-12T09:52:23.271Z,1864.00
2018-04-12T09:54:16.211Z,1812.00
2018-04-12T09:55:16.118Z,1740.00
2018-04-12T09:57:09.065Z,1920.00
2018-04-12T09:58:08.973Z,2208.00
2018-04-12T10:00:01.956Z,2900.00
2018-04-12T10:01:01.825Z,2964.00
2018-04-12T10:02:54.772Z,2960.00
2018-04-12T10:03:54.677Z,3108.00
2018-04-12T10:05:47.624Z,3340.00
2018-04-12T10:06:47.531Z,3424.00
2018-04-12T10:08:40.475Z,3508.00
2018-04-12T10:09:40.386Z,3708.00
2018-04-12T10:11:33.328Z,4056.00
2018-04-12T10:12:33.236Z,4016.00
2018-04-12T10:14:26.181Z,4360.00
2018-04-12T10:15:26.094Z,4716.00
2018-04-12T10:17:19.102Z,5380.00
2018-04-12T10:18:18.941Z,5864.00
2018-04-12T10:20:11.887Z,5788.00
2018-04-12T10:21:11.796Z,6032.00
2018-04-12T10:23:04.740Z,5740.00
2018-04-12T10:24:04.651Z,5684.00
2018-04-12T10:25:57.592Z,5264.00
2018-04-12T10:26:57.504Z,5596.00
2018-04-12T10:28:50.451Z,5756.00
2018-04-12T10:29:50.355Z,6520.00
2018-04-12T10:31:43.302Z,6392.00
2018-04-12T10:32:43.212Z,6160.00
2018-04-12T10:34:36.151Z,5876.00
2018-04-12T10:35:36.061Z,5800.00
2018-04-12T10:37:29.903Z,5000.00
2018-04-12T10:38:28.920Z,5128.00
2018-04-12T10:40:21.857Z,5116.00
2018-04-12T10:41:21.770Z,5032.00
2018-04-12T10:43:14.711Z,4764.00
2018-04-12T10:44:18.233Z,5308.00
2018-04-12T10:46:07.580Z,4980.00
2018-04-12T10:47:07.478Z,4580.00
2018-04-12T10:49:00.418Z,4048.00
2018-04-12T10:50:00.333Z,3952.00
2018-04-12T10:51:53.385Z,3520.00
2018-04-12T10:52:53.284Z,3364.00
2018-04-12T10:54:46.324Z,3120.00
2018-04-12T10:55:46.240Z,2928.00
2018-04-12T10:57:39.180Z,3004.00
2018-04-12T10:58:39.093Z,3120.00
2018-04-12T11:00:32.030Z,3396.00
2018-04-12T11:01:31.944Z,3592.00
2018-04-12T11:02:32.023Z,3860.00
2018-04-12T11:03:31.930Z,4140.00
2018-04-12T11:04:31.933Z,4244.00
2018-04-12T11:05:31.870Z,4352.00
2018-04-12T11:06:31.953Z,4432.00
2018-04-12T11:07:31.832Z,4416.00
2018-04-12T11:08:31.850Z,4572.00
2018-04-12T11:09:31.796Z,5076.00
2018-04-12T11:10:31.871Z,5512.00
2018-04-12T11:11:31.764Z,5332.00
2018-04-12T11:12:31.786Z,5868.00
2018-04-12T11:13:31.726Z,5976.00
2018-04-12T11:14:31.804Z,5960.00
2018-04-12T11:15:31.687Z,5968.00
2018-04-12T11:16:31.711Z,5584.00
2018-04-12T11:17:31.656Z,4904.00
2018-04-12T11:18:32.131Z,4468.00
2018-04-12T11:19:31.615Z,4272.00
2018-04-12T11:20:31.636Z,4292.00
2018-04-12T11:21:31.578Z,4296.00
2018-04-12T11:22:31.648Z,4184.00
2018-04-12T11:23:31.551Z,4192.00
2018-04-12T11:24:31.562Z,4200.00
2018-04-12T11:25:31.510Z,4324.00
2018-04-12T11:26:31.578Z,4604.00
2018-04-12T11:27:31.474Z,4872.00
2018-04-12T11:28:31.486Z,5132.00
2018-04-12T11:29:31.438Z,5268.00
2018-04-12T11:30:31.502Z,5452.00
2018-04-12T11:31:31.405Z,5668.00
2018-04-12T11:32:31.419Z,6008.00
2018-04-12T11:33:31.370Z,6140.00
2018-04-12T11:34:31.435Z,6072.00
2018-04-12T11:35:31.338Z,6128.00
2018-04-12T11:36:31.336Z,5964.00
2018-04-12T11:37:31.301Z,5532.00
2018-04-12T11:38:31.350Z,5200.00
2018-04-12T11:39:31.266Z,4760.00
2018-04-12T11:40:31.273Z,4328.00
2018-04-12T11:41:31.239Z,3992.00
2018-04-12T11:42:31.276Z,3716.00
2018-04-12T11:43:31.201Z,3560.00
2018-04-12T11:44:31.290Z,3456.00
2018-04-12T11:45:31.197Z,3408.00
2018-04-12T11:46:31.201Z,3412.00
2018-04-12T11:47:31.132Z,3412.00
2018-04-12T11:48:31.216Z,3400.00
2018-04-12T11:49:31.098Z,3344.00
2018-04-12T11:50:31.127Z,3348.00
2018-04-12T11:51:31.102Z,3340.00
2018-04-12T11:52:31.141Z,3280.00
2018-04-12T11:53:31.036Z,3148.00
2018-04-12T11:54:31.053Z,3036.00
2018-04-12T11:55:31.025Z,2956.00
2018-04-12T11:56:31.104Z,2916.00
2018-04-12T11:57:30.969Z,2928.00
2018-04-12T11:58:30.978Z,2988.00
2018-04-12T11:59:30.936Z,3044.00
2018-04-12T12:00:30.992Z,3108.00
2018-04-12T12:01:30.904Z,3168.00
2018-04-12T12:02:30.905Z,3220.00
2018-04-12T12:03:30.869Z,3264.00
2018-04-12T12:04:30.910Z,3272.00
2018-04-12T12:05:30.836Z,3300.00
2018-04-12T12:06:30.829Z,3380.00
2018-04-12T12:07:30.803Z,3464.00
2018-04-12T12:08:30.843Z,3576.00
2018-04-12T12:09:30.771Z,3712.00
2018-04-12T12:10:30.860Z,3828.00
2018-04-12T12:11:30.735Z,3956.00
2018-04-12T12:12:30.769Z,4096.00
2018-04-12T12:13:30.701Z,4204.00
2018-04-12T12:14:30.783Z,4328.00
2018-04-12T12:15:30.669Z,4312.00
2018-04-12T12:16:30.694Z,4276.00
2018-04-12T12:17:30.634Z,4200.00
2018-04-12T12:18:30.710Z,4176.00
2018-04-12T12:19:30.604Z,4176.00
2018-04-12T12:20:30.620Z,4180.00
2018-04-12T12:21:30.569Z,4164.00
2018-04-12T12:22:30.636Z,4136.00
2018-04-12T12:23:30.538Z,4136.00
2018-04-12T12:24:30.547Z,4176.00
2018-04-12T12:25:30.507Z,4284.00
2018-04-12T12:26:30.561Z,4416.00
2018-04-12T12:27:30.473Z,4448.00
2018-04-12T12:28:30.492Z,4576.00
2018-04-12T12:29:30.445Z,4708.00
2018-04-12T12:30:30.493Z,5012.00
2018-04-12T12:31:30.412Z,5096.00
2018-04-12T12:32:30.506Z,5140.00
2018-04-12T12:33:30.373Z,5164.00
2018-04-12T12:34:30.418Z,5180.00
2018-04-12T12:35:30.343Z,5164.00
2018-04-12T12:36:30.431Z,5064.00
2018-04-12T12:37:30.310Z,4760.00
2018-04-12T12:38:30.341Z,4400.00
2018-04-12T12:39:30.279Z,4372.00
2018-04-12T12:40:30.357Z,4544.00
2018-04-12T12:41:30.250Z,4960.00
2018-04-12T12:42:30.267Z,5576.00
2018-04-12T12:43:30.218Z,5880.00
2018-04-12T12:44:30.282Z,5944.00
2018-04-12T12:45:30.189Z,5856.00
2018-04-12T12:46:30.192Z,6056.00
2018-04-12T12:47:30.156Z,6496.00
2018-04-12T12:48:30.207Z,6508.00
2018-04-12T12:49:30.122Z,6532.00
2018-04-12T12:50:30.222Z,6440.00
2018-04-12T12:51:30.094Z,6344.00
2018-04-12T12:52:30.134Z,6316.00
2018-04-12T12:53:30.064Z,6292.00
2018-04-12T12:54:30.147Z,6308.00
2018-04-12T12:55:30.044Z,6288.00
2018-04-12T12:56:30.058Z,6224.00
2018-04-12T12:57:30.004Z,6216.00
2018-04-12T12:58:30.073Z,6228.00
2018-04-12T12:59:29.973Z,6220.00
2018-04-12T13:00:29.984Z,6248.00
2018-04-12T13:01:29.945Z,6204.00
2018-04-12T13:02:29.999Z,6160.00
2018-04-12T13:03:29.943Z,6120.00
2018-04-12T13:04:30.042Z,6016.00
2018-04-12T13:05:29.884Z,5852.00
2018-04-12T13:06:29.933Z,5632.00
2018-04-12T13:07:29.857Z,5400.00
2018-04-12T13:08:29.935Z,5440.00
2018-04-12T13:09:29.839Z,5528.00
2018-04-12T13:10:29.843Z,5824.00
2018-04-12T13:11:29.805Z,5932.00
2018-04-12T13:12:29.862Z,5928.00
2018-04-12T13:13:29.777Z,5820.00
2018-04-12T13:14:29.774Z,5924.00
2018-04-12T13:15:29.738Z,5956.00
2018-04-12T13:16:29.902Z,5900.00
2018-04-12T13:17:29.779Z,5840.00
2018-04-12T13:18:29.800Z,5600.00
2018-04-12T13:19:29.685Z,5508.00
2018-04-12T13:20:29.814Z,5500.00
2018-04-12T13:21:29.660Z,5616.00
2018-04-12T13:22:29.828Z,5692.00
2018-04-12T13:23:29.629Z,5696.00
2018-04-12T13:24:29.742Z,5816.00
2018-04-12T13:25:29.599Z,5732.00
2018-04-12T13:26:29.756Z,5684.00
2018-04-12T13:27:29.577Z,5424.00
2018-04-12T13:28:29.667Z,5392.00
2018-04-12T13:29:29.551Z,5280.00
2018-04-12T13:30:29.681Z,5068.00
2018-04-12T13:31:29.522Z,4568.00
2018-04-12T13:32:29.695Z,4116.00
2018-04-12T13:33:29.498Z,4184.00
2018-04-12T13:34:30.529Z,3912.00
2018-04-12T13:35:29.467Z,3832.00
2018-04-12T13:36:29.624Z,4328.00
2018-04-12T13:37:29.446Z,5036.00
2018-04-12T13:38:29.639Z,4684.00
2018-04-12T13:39:29.414Z,5152.00
2018-04-12T13:40:29.550Z,5124.00
2018-04-12T13:41:29.386Z,5192.00
2018-04-12T13:42:29.567Z,5272.00
2018-04-12T13:43:29.365Z,5472.00
2018-04-12T13:44:29.483Z,5436.00
2018-04-12T13:45:29.333Z,5276.00
2018-04-12T13:46:29.494Z,5168.00
2018-04-12T13:47:29.311Z,4592.00
2018-04-12T13:48:29.503Z,4572.00
2018-04-12T13:49:29.282Z,3920.00
2018-04-12T13:50:29.266Z,4372.00
2018-04-12T13:51:29.249Z,4568.00
2018-04-12T13:52:29.329Z,4584.00
2018-04-12T13:53:29.226Z,4956.00
2018-04-12T13:54:29.232Z,4920.00
2018-04-12T13:55:29.206Z,5016.00
2018-04-12T13:56:29.249Z,5044.00
2018-04-12T13:57:29.174Z,4900.00
2018-04-12T13:58:29.260Z,5020.00
2018-04-12T13:59:29.149Z,5100.00
2018-04-12T14:00:29.168Z,5144.00
2018-04-12T14:01:29.125Z,5140.00
2018-04-12T14:02:29.179Z,4968.00
2018-04-12T14:03:29.095Z,4944.00
2018-04-12T14:04:29.190Z,4872.00
2018-04-12T14:05:29.068Z,4720.00
2018-04-12T14:06:29.102Z,4580.00
2018-04-12T14:07:29.045Z,4200.00
2018-04-12T14:08:29.113Z,3528.00
2018-04-12T14:09:29.018Z,3296.00
2018-04-12T14:10:29.024Z,3488.00
2018-04-12T14:11:28.993Z,3412.00
2018-04-12T14:12:29.039Z,3516.00
2018-04-12T14:13:28.969Z,3448.00
2018-04-12T14:14:29.051Z,2820.00
2018-04-12T14:15:28.968Z,2760.00
2018-04-12T14:16:28.964Z,2876.00
2018-04-12T14:17:28.917Z,3036.00
2018-04-12T14:18:28.977Z,3184.00
2018-04-12T14:19:28.895Z,3244.00